sensor_id;sensor_type;location;lat;lon;timestamp;temperature;humidity
44647;DHT22;56315;-33.902;151.160;2023-04-25T00:00:44;32.60;95.30
44647;DHT22;56315;-33.902;151.160;2023-04-25T00:03:11;33.00;94.40
44647;DHT22;56315;-33.902;151.160;2023-04-25T00:08:09;33.30;95.10
44647;DHT22;56315;-33.902;151.160;2023-04-25T00:10:36;33.90;93.60
44647;DHT22;56315;-33.902;151.160;2023-04-25T00:13:04;34.20;93.90
44647;DHT22;56315;-33.902;151.160;2023-04-25T00:15:31;34.60;93.10
44647;DHT22;56315;-33.902;151.160;2023-04-25T00:17:58;34.40;93.90
44647;DHT22;56315;-33.902;151.160;2023-04-25T00:20:25;34.60;93.40
44647;DHT22;56315;-33.902;151.160;2023-04-25T00:22:53;34.70;92.50
44647;DHT22;56315;-33.902;151.160;2023-04-25T00:25:20;34.60;92.20
44647;DHT22;56315;-33.902;151.160;2023-04-25T00:27:47;34.40;92.70
44647;DHT22;56315;-33.902;151.160;2023-04-25T00:30:15;34.40;92.60
44647;DHT22;56315;-33.902;151.160;2023-04-25T00:32:42;34.70;92.40
44647;DHT22;56315;-33.902;151.160;2023-04-25T00:35:09;34.50;90.50
44647;DHT22;56315;-33.902;151.160;2023-04-25T00:37:37;34.50;91.10
44647;DHT22;56315;-33.902;151.160;2023-04-25T00:40:06;34.50;90.10
44647;DHT22;56315;-33.902;151.160;2023-04-25T00:42:34;34.90;90.70
44647;DHT22;56315;-33.902;151.160;2023-04-25T00:45:05;35.30;91.10
44647;DHT22;56315;-33.902;151.160;2023-04-25T00:47:33;35.10;90.90
44647;DHT22;56315;-33.902;151.160;2023-04-25T00:50:01;35.30;90.50
44647;DHT22;56315;-33.902;151.160;2023-04-25T00:52:29;35.70;90.80
44647;DHT22;56315;-33.902;151.160;2023-04-25T00:54:56;36.20;90.50
44647;DHT22;56315;-33.902;151.160;2023-04-25T00:57:23;36.20;90.50
44647;DHT22;56315;-33.902;151.160;2023-04-25T00:59:53;36.40;90.60
44647;DHT22;56315;-33.902;151.160;2023-04-25T01:02:21;35.90;90.20
44647;DHT22;56315;-33.902;151.160;2023-04-25T01:04:48;35.80;90.90
44647;DHT22;56315;-33.902;151.160;2023-04-25T01:07:16;35.90;90.60
44647;DHT22;56315;-33.902;151.160;2023-04-25T01:09:43;35.80;90.00
44647;DHT22;56315;-33.902;151.160;2023-04-25T01:12:11;35.60;89.50
44647;DHT22;56315;-33.902;151.160;2023-04-25T01:14:38;35.60;88.10
44647;DHT22;56315;-33.902;151.160;2023-04-25T01:17:06;35.80;88.80
44647;DHT22;56315;-33.902;151.160;2023-04-25T01:19:34;36.00;90.60
44647;DHT22;56315;-33.902;151.160;2023-04-25T01:22:02;34.90;89.10
44647;DHT22;56315;-33.902;151.160;2023-04-25T01:24:33;33.90;90.00
44647;DHT22;56315;-33.902;151.160;2023-04-25T01:27:03;33.20;90.60
44647;DHT22;56315;-33.902;151.160;2023-04-25T01:29:31;32.30;91.60
44647;DHT22;56315;-33.902;151.160;2023-04-25T01:31:59;31.70;91.70
44647;DHT22;56315;-33.902;151.160;2023-04-25T01:34:27;31.10;92.20
44647;DHT22;56315;-33.902;151.160;2023-04-25T01:36:54;31.40;93.00
44647;DHT22;56315;-33.902;151.160;2023-04-25T01:39:21;31.90;93.20
44647;DHT22;56315;-33.902;151.160;2023-04-25T01:41:49;32.60;92.80
44647;DHT22;56315;-33.902;151.160;2023-04-25T01:44:16;33.30;91.80
44647;DHT22;56315;-33.902;151.160;2023-04-25T01:46:43;33.30;91.00
44647;DHT22;56315;-33.902;151.160;2023-04-25T01:49:11;32.80;91.20
44647;DHT22;56315;-33.902;151.160;2023-04-25T01:51:38;32.40;90.90
44647;DHT22;56315;-33.902;151.160;2023-04-25T01:54:06;32.50;92.70
44647;DHT22;56315;-33.902;151.160;2023-04-25T01:56:37;32.60;91.90
44647;DHT22;56315;-33.902;151.160;2023-04-25T01:59:05;32.50;91.50
44647;DHT22;56315;-33.902;151.160;2023-04-25T02:01:33;32.40;91.60
44647;DHT22;56315;-33.902;151.160;2023-04-25T02:04:01;32.50;91.30
44647;DHT22;56315;-33.902;151.160;2023-04-25T02:06:28;32.90;91.10
44647;DHT22;56315;-33.902;151.160;2023-04-25T02:08:57;33.00;90.80
44647;DHT22;56315;-33.902;151.160;2023-04-25T02:11:24;33.30;92.30
44647;DHT22;56315;-33.902;151.160;2023-04-25T02:13:51;33.50;91.60
44647;DHT22;56315;-33.902;151.160;2023-04-25T02:16:18;34.00;91.10
44647;DHT22;56315;-33.902;151.160;2023-04-25T02:18:46;34.50;91.10
44647;DHT22;56315;-33.902;151.160;2023-04-25T02:21:13;34.80;90.80
44647;DHT22;56315;-33.902;151.160;2023-04-25T02:23:40;35.40;90.40
44647;DHT22;56315;-33.902;151.160;2023-04-25T02:26:08;35.80;90.70
44647;DHT22;56315;-33.902;151.160;2023-04-25T02:28:35;35.70;88.60
44647;DHT22;56315;-33.902;151.160;2023-04-25T02:31:02;34.90;90.00
44647;DHT22;56315;-33.902;151.160;2023-04-25T02:33:29;34.10;90.10
44647;DHT22;56315;-33.902;151.160;2023-04-25T02:35:56;33.40;90.80
44647;DHT22;56315;-33.902;151.160;2023-04-25T02:38:24;32.90;91.10
44647;DHT22;56315;-33.902;151.160;2023-04-25T02:40:51;32.80;91.20
44647;DHT22;56315;-33.902;151.160;2023-04-25T02:43:18;33.10;90.90
44647;DHT22;56315;-33.902;151.160;2023-04-25T02:45:47;32.90;91.00
44647;DHT22;56315;-33.902;151.160;2023-04-25T02:48:14;32.40;92.00
44647;DHT22;56315;-33.902;151.160;2023-04-25T02:50:41;31.60;92.00
44647;DHT22;56315;-33.902;151.160;2023-04-25T02:53:08;30.80;92.40
44647;DHT22;56315;-33.902;151.160;2023-04-25T02:55:36;30.30;92.80
44647;DHT22;56315;-33.902;151.160;2023-04-25T02:58:03;30.00;94.00
44647;DHT22;56315;-33.902;151.160;2023-04-25T03:00:30;29.90;93.90
44647;DHT22;56315;-33.902;151.160;2023-04-25T03:02:58;29.90;94.20
44647;DHT22;56315;-33.902;151.160;2023-04-25T03:05:25;30.00;94.50
44647;DHT22;56315;-33.902;151.160;2023-04-25T03:07:52;30.20;93.40
44647;DHT22;56315;-33.902;151.160;2023-04-25T03:10:19;30.50;93.00
44647;DHT22;56315;-33.902;151.160;2023-04-25T03:12:47;30.80;93.60
44647;DHT22;56315;-33.902;151.160;2023-04-25T03:15:14;30.80;92.90
44647;DHT22;56315;-33.902;151.160;2023-04-25T03:17:43;30.90;93.80
44647;DHT22;56315;-33.902;151.160;2023-04-25T03:20:11;30.60;92.50
44647;DHT22;56315;-33.902;151.160;2023-04-25T03:22:38;30.50;93.30
44647;DHT22;56315;-33.902;151.160;2023-04-25T03:25:06;30.20;93.80
44647;DHT22;56315;-33.902;151.160;2023-04-25T03:27:33;29.90;94.70
44647;DHT22;56315;-33.902;151.160;2023-04-25T03:30:01;29.60;94.60
44647;DHT22;56315;-33.902;151.160;2023-04-25T03:32:28;29.20;94.30
44647;DHT22;56315;-33.902;151.160;2023-04-25T03:34:55;29.00;94.60
44647;DHT22;56315;-33.902;151.160;2023-04-25T03:37:22;28.70;95.10
44647;DHT22;56315;-33.902;151.160;2023-04-25T03:39:50;28.60;95.70
44647;DHT22;56315;-33.902;151.160;2023-04-25T03:42:17;28.30;95.90
44647;DHT22;56315;-33.902;151.160;2023-04-25T03:44:44;27.90;96.60
44647;DHT22;56315;-33.902;151.160;2023-04-25T03:47:12;27.70;96.70
44647;DHT22;56315;-33.902;151.160;2023-04-25T03:49:39;27.60;97.40
44647;DHT22;56315;-33.902;151.160;2023-04-25T03:52:06;27.40;97.70
44647;DHT22;56315;-33.902;151.160;2023-04-25T03:54:33;27.30;97.80
44647;DHT22;56315;-33.902;151.160;2023-04-25T03:57:01;27.00;98.30
44647;DHT22;56315;-33.902;151.160;2023-04-25T03:59:28;26.90;98.60
44647;DHT22;56315;-33.902;151.160;2023-04-25T04:01:55;26.60;98.20
44647;DHT22;56315;-33.902;151.160;2023-04-25T04:04:22;26.30;98.90
44647;DHT22;56315;-33.902;151.160;2023-04-25T04:06:50;26.10;99.40
44647;DHT22;56315;-33.902;151.160;2023-04-25T04:09:18;26.00;99.60
44647;DHT22;56315;-33.902;151.160;2023-04-25T04:11:46;25.90;99.90
44647;DHT22;56315;-33.902;151.160;2023-04-25T04:14:14;25.80;99.90
44647;DHT22;56315;-33.902;151.160;2023-04-25T04:16:41;25.80;99.90
44647;DHT22;56315;-33.902;151.160;2023-04-25T04:19:08;25.70;99.90
44647;DHT22;56315;-33.902;151.160;2023-04-25T04:21:35;25.70;99.90
44647;DHT22;56315;-33.902;151.160;2023-04-25T04:24:03;25.70;99.90
44647;DHT22;56315;-33.902;151.160;2023-04-25T04:26:31;25.60;99.90
44647;DHT22;56315;-33.902;151.160;2023-04-25T04:28:59;25.50;99.90
44647;DHT22;56315;-33.902;151.160;2023-04-25T04:31:26;25.40;99.90
44647;DHT22;56315;-33.902;151.160;2023-04-25T04:33:53;25.20;99.90
44647;DHT22;56315;-33.902;151.160;2023-04-25T04:36:21;25.10;99.90
44647;DHT22;56315;-33.902;151.160;2023-04-25T04:38:49;24.90;99.90
44647;DHT22;56315;-33.902;151.160;2023-04-25T04:41:16;24.80;99.90
44647;DHT22;56315;-33.902;151.160;2023-04-25T04:43:44;24.80;99.90
44647;DHT22;56315;-33.902;151.160;2023-04-25T04:46:11;24.80;99.90
44647;DHT22;56315;-33.902;151.160;2023-04-25T04:48:39;24.70;99.90
44647;DHT22;56315;-33.902;151.160;2023-04-25T04:51:07;24.60;99.90
44647;DHT22;56315;-33.902;151.160;2023-04-25T04:53:34;24.50;99.90
44647;DHT22;56315;-33.902;151.160;2023-04-25T04:56:01;24.30;99.90
44647;DHT22;56315;-33.902;151.160;2023-04-25T04:58:28;24.30;99.90
44647;DHT22;56315;-33.902;151.160;2023-04-25T05:00:56;24.20;99.90
44647;DHT22;56315;-33.902;151.160;2023-04-25T05:03:23;24.20;99.90
44647;DHT22;56315;-33.902;151.160;2023-04-25T05:05:50;24.20;99.90
44647;DHT22;56315;-33.902;151.160;2023-04-25T05:08:18;24.10;99.90
44647;DHT22;56315;-33.902;151.160;2023-04-25T05:10:45;24.10;99.90
44647;DHT22;56315;-33.902;151.160;2023-04-25T05:13:12;24.00;99.90
44647;DHT22;56315;-33.902;151.160;2023-04-25T05:15:39;23.90;99.90
44647;DHT22;56315;-33.902;151.160;2023-04-25T05:18:07;23.90;99.90
44647;DHT22;56315;-33.902;151.160;2023-04-25T05:20:34;23.80;99.90
44647;DHT22;56315;-33.902;151.160;2023-04-25T05:23:01;23.80;99.90
44647;DHT22;56315;-33.902;151.160;2023-04-25T05:25:29;23.80;99.90
44647;DHT22;56315;-33.902;151.160;2023-04-25T05:27:56;23.70;99.90
44647;DHT22;56315;-33.902;151.160;2023-04-25T05:30:24;23.60;99.90
44647;DHT22;56315;-33.902;151.160;2023-04-25T05:32:51;23.60;99.90
44647;DHT22;56315;-33.902;151.160;2023-04-25T05:35:19;23.50;99.90
44647;DHT22;56315;-33.902;151.160;2023-04-25T05:37:46;23.40;99.90
44647;DHT22;56315;-33.902;151.160;2023-04-25T05:40:14;23.40;99.90
44647;DHT22;56315;-33.902;151.160;2023-04-25T05:42:41;23.30;99.90
44647;DHT22;56315;-33.902;151.160;2023-04-25T05:45:08;23.30;99.90
44647;DHT22;56315;-33.902;151.160;2023-04-25T05:47:36;23.30;99.90
44647;DHT22;56315;-33.902;151.160;2023-04-25T05:50:03;23.20;99.90
44647;DHT22;56315;-33.902;151.160;2023-04-25T05:52:30;23.20;99.90
44647;DHT22;56315;-33.902;151.160;2023-04-25T05:54:58;23.10;99.90
44647;DHT22;56315;-33.902;151.160;2023-04-25T05:57:26;23.00;99.90
44647;DHT22;56315;-33.902;151.160;2023-04-25T05:59:54;23.00;99.90
44647;DHT22;56315;-33.902;151.160;2023-04-25T06:02:21;22.90;99.90
44647;DHT22;56315;-33.902;151.160;2023-04-25T06:04:52;22.80;99.90
44647;DHT22;56315;-33.902;151.160;2023-04-25T06:07:19;22.80;99.90
44647;DHT22;56315;-33.902;151.160;2023-04-25T06:09:47;22.70;99.90
44647;DHT22;56315;-33.902;151.160;2023-04-25T06:12:14;22.70;99.90
44647;DHT22;56315;-33.902;151.160;2023-04-25T06:14:41;22.60;99.90
44647;DHT22;56315;-33.902;151.160;2023-04-25T06:17:08;22.50;99.90
44647;DHT22;56315;-33.902;151.160;2023-04-25T06:19:36;22.40;99.90
44647;DHT22;56315;-33.902;151.160;2023-04-25T06:22:03;22.40;99.90
44647;DHT22;56315;-33.902;151.160;2023-04-25T06:24:30;22.30;99.90
44647;DHT22;56315;-33.902;151.160;2023-04-25T06:26:58;22.20;99.90
44647;DHT22;56315;-33.902;151.160;2023-04-25T06:29:25;22.10;99.90
44647;DHT22;56315;-33.902;151.160;2023-04-25T06:31:52;22.10;99.90
44647;DHT22;56315;-33.902;151.160;2023-04-25T06:34:19;22.10;99.90
44647;DHT22;56315;-33.902;151.160;2023-04-25T06:36:47;22.00;99.90
44647;DHT22;56315;-33.902;151.160;2023-04-25T06:39:14;21.90;99.90
44647;DHT22;56315;-33.902;151.160;2023-04-25T06:41:41;21.90;99.90
44647;DHT22;56315;-33.902;151.160;2023-04-25T06:44:08;21.90;99.90
44647;DHT22;56315;-33.902;151.160;2023-04-25T06:46:36;21.80;99.90
44647;DHT22;56315;-33.902;151.160;2023-04-25T06:49:04;21.70;99.90
44647;DHT22;56315;-33.902;151.160;2023-04-25T06:51:31;21.70;99.90
44647;DHT22;56315;-33.902;151.160;2023-04-25T06:53:59;21.60;99.90
44647;DHT22;56315;-33.902;151.160;2023-04-25T06:56:27;21.60;99.90
44647;DHT22;56315;-33.902;151.160;2023-04-25T06:58:56;21.50;99.90
44647;DHT22;56315;-33.902;151.160;2023-04-25T07:01:23;21.50;99.90
44647;DHT22;56315;-33.902;151.160;2023-04-25T07:03:50;21.40;99.90
44647;DHT22;56315;-33.902;151.160;2023-04-25T07:06:17;21.30;99.90
44647;DHT22;56315;-33.902;151.160;2023-04-25T07:08:45;21.30;99.90
44647;DHT22;56315;-33.902;151.160;2023-04-25T07:11:12;21.30;99.90
44647;DHT22;56315;-33.902;151.160;2023-04-25T07:13:39;21.20;99.90
44647;DHT22;56315;-33.902;151.160;2023-04-25T07:16:07;21.10;99.90
44647;DHT22;56315;-33.902;151.160;2023-04-25T07:18:34;21.10;99.90
44647;DHT22;56315;-33.902;151.160;2023-04-25T07:21:01;21.00;99.90
44647;DHT22;56315;-33.902;151.160;2023-04-25T07:23:28;21.00;99.90
44647;DHT22;56315;-33.902;151.160;2023-04-25T07:25:56;20.90;99.90
44647;DHT22;56315;-33.902;151.160;2023-04-25T07:28:23;20.80;99.90
44647;DHT22;56315;-33.902;151.160;2023-04-25T07:30:51;20.80;99.90
44647;DHT22;56315;-33.902;151.160;2023-04-25T07:33:18;20.70;99.90
44647;DHT22;56315;-33.902;151.160;2023-04-25T07:35:46;20.70;99.90
44647;DHT22;56315;-33.902;151.160;2023-04-25T07:38:14;20.70;99.90
44647;DHT22;56315;-33.902;151.160;2023-04-25T07:40:41;20.60;99.90
44647;DHT22;56315;-33.902;151.160;2023-04-25T07:43:08;20.70;99.90
44647;DHT22;56315;-33.902;151.160;2023-04-25T07:45:38;20.60;99.90
44647;DHT22;56315;-33.902;151.160;2023-04-25T07:48:05;20.60;99.90
44647;DHT22;56315;-33.902;151.160;2023-04-25T07:50:33;20.50;99.90
44647;DHT22;56315;-33.902;151.160;2023-04-25T07:53:00;20.50;99.90
44647;DHT22;56315;-33.902;151.160;2023-04-25T07:55:27;20.40;99.90
44647;DHT22;56315;-33.902;151.160;2023-04-25T07:57:54;20.40;99.90
44647;DHT22;56315;-33.902;151.160;2023-04-25T08:00:21;20.40;99.90
44647;DHT22;56315;-33.902;151.160;2023-04-25T08:02:49;20.30;99.90
44647;DHT22;56315;-33.902;151.160;2023-04-25T08:05:17;20.30;99.90
44647;DHT22;56315;-33.902;151.160;2023-04-25T08:07:44;20.30;99.90
44647;DHT22;56315;-33.902;151.160;2023-04-25T08:10:12;20.20;99.90
44647;DHT22;56315;-33.902;151.160;2023-04-25T08:12:39;20.20;99.90
44647;DHT22;56315;-33.902;151.160;2023-04-25T08:15:06;20.20;99.90
44647;DHT22;56315;-33.902;151.160;2023-04-25T08:17:34;20.10;99.90
44647;DHT22;56315;-33.902;151.160;2023-04-25T08:20:01;20.20;99.90
44647;DHT22;56315;-33.902;151.160;2023-04-25T08:22:32;20.10;99.90
44647;DHT22;56315;-33.902;151.160;2023-04-25T08:25:00;20.10;99.90
44647;DHT22;56315;-33.902;151.160;2023-04-25T08:27:27;20.10;99.90
44647;DHT22;56315;-33.902;151.160;2023-04-25T08:29:54;20.10;99.90
44647;DHT22;56315;-33.902;151.160;2023-04-25T08:32:22;20.00;99.90
44647;DHT22;56315;-33.902;151.160;2023-04-25T08:34:49;20.00;99.90
44647;DHT22;56315;-33.902;151.160;2023-04-25T08:37:17;20.00;99.90
44647;DHT22;56315;-33.902;151.160;2023-04-25T08:39:46;20.00;99.90
44647;DHT22;56315;-33.902;151.160;2023-04-25T08:42:15;20.00;99.90
44647;DHT22;56315;-33.902;151.160;2023-04-25T08:44:42;19.90;99.90
44647;DHT22;56315;-33.902;151.160;2023-04-25T08:47:10;19.90;99.90
44647;DHT22;56315;-33.902;151.160;2023-04-25T08:49:38;19.80;99.90
44647;DHT22;56315;-33.902;151.160;2023-04-25T08:52:08;19.90;99.90
44647;DHT22;56315;-33.902;151.160;2023-04-25T08:54:43;19.90;99.90
44647;DHT22;56315;-33.902;151.160;2023-04-25T08:57:11;19.90;99.90
44647;DHT22;56315;-33.902;151.160;2023-04-25T08:59:40;19.80;99.90
44647;DHT22;56315;-33.902;151.160;2023-04-25T09:02:12;19.80;99.90
44647;DHT22;56315;-33.902;151.160;2023-04-25T09:04:44;19.80;99.90
44647;DHT22;56315;-33.902;151.160;2023-04-25T09:07:11;19.80;99.90
44647;DHT22;56315;-33.902;151.160;2023-04-25T09:09:42;19.80;99.90
44647;DHT22;56315;-33.902;151.160;2023-04-25T09:12:09;19.80;99.90
44647;DHT22;56315;-33.902;151.160;2023-04-25T09:14:37;19.80;99.90
44647;DHT22;56315;-33.902;151.160;2023-04-25T09:17:05;19.80;99.90
44647;DHT22;56315;-33.902;151.160;2023-04-25T09:19:35;19.60;99.90
44647;DHT22;56315;-33.902;151.160;2023-04-25T09:22:05;19.60;99.90
44647;DHT22;56315;-33.902;151.160;2023-04-25T09:24:36;19.60;99.90
44647;DHT22;56315;-33.902;151.160;2023-04-25T09:27:08;19.60;99.90
44647;DHT22;56315;-33.902;151.160;2023-04-25T09:29:37;19.60;99.90
44647;DHT22;56315;-33.902;151.160;2023-04-25T09:34:49;19.60;99.90
44647;DHT22;56315;-33.902;151.160;2023-04-25T09:37:22;19.50;99.90
44647;DHT22;56315;-33.902;151.160;2023-04-25T09:39:53;19.60;99.90
44647;DHT22;56315;-33.902;151.160;2023-04-25T09:42:25;19.60;99.90
44647;DHT22;56315;-33.902;151.160;2023-04-25T09:44:54;19.50;99.90
44647;DHT22;56315;-33.902;151.160;2023-04-25T09:47:24;19.60;99.90
44647;DHT22;56315;-33.902;151.160;2023-04-25T09:49:52;19.60;99.90
44647;DHT22;56315;-33.902;151.160;2023-04-25T09:52:24;19.50;99.90
44647;DHT22;56315;-33.902;151.160;2023-04-25T09:54:52;19.50;99.90
44647;DHT22;56315;-33.902;151.160;2023-04-25T09:57:24;19.50;99.90
44647;DHT22;56315;-33.902;151.160;2023-04-25T09:59:53;19.50;99.90
44647;DHT22;56315;-33.902;151.160;2023-04-25T10:02:23;19.50;99.90
44647;DHT22;56315;-33.902;151.160;2023-04-25T10:04:52;19.50;99.90
44647;DHT22;56315;-33.902;151.160;2023-04-25T10:07:30;19.50;99.90
44647;DHT22;56315;-33.902;151.160;2023-04-25T10:10:04;19.50;99.90
44647;DHT22;56315;-33.902;151.160;2023-04-25T10:12:33;19.50;99.90
44647;DHT22;56315;-33.902;151.160;2023-04-25T10:15:01;19.40;99.90
44647;DHT22;56315;-33.902;151.160;2023-04-25T10:17:29;19.40;99.90
44647;DHT22;56315;-33.902;151.160;2023-04-25T10:19:58;19.40;99.90
44647;DHT22;56315;-33.902;151.160;2023-04-25T10:22:36;19.30;99.90
44647;DHT22;56315;-33.902;151.160;2023-04-25T10:25:05;19.30;99.90
44647;DHT22;56315;-33.902;151.160;2023-04-25T10:27:35;19.40;99.90
44647;DHT22;56315;-33.902;151.160;2023-04-25T10:30:04;19.40;99.90
44647;DHT22;56315;-33.902;151.160;2023-04-25T10:32:32;19.40;99.90
44647;DHT22;56315;-33.902;151.160;2023-04-25T10:35:14;19.40;99.90
44647;DHT22;56315;-33.902;151.160;2023-04-25T10:38:05;19.30;99.90
44647;DHT22;56315;-33.902;151.160;2023-04-25T10:40:34;19.30;99.90
44647;DHT22;56315;-33.902;151.160;2023-04-25T10:46:03;19.20;99.90
44647;DHT22;56315;-33.902;151.160;2023-04-25T10:49:01;19.10;99.90
44647;DHT22;56315;-33.902;151.160;2023-04-25T10:51:33;19.20;99.90
44647;DHT22;56315;-33.902;151.160;2023-04-25T10:54:04;19.10;99.90
44647;DHT22;56315;-33.902;151.160;2023-04-25T10:56:40;19.00;99.90
44647;DHT22;56315;-33.902;151.160;2023-04-25T10:59:17;18.90;99.90
44647;DHT22;56315;-33.902;151.160;2023-04-25T11:01:46;18.80;99.90
44647;DHT22;56315;-33.902;151.160;2023-04-25T11:04:30;18.70;99.90
44647;DHT22;56315;-33.902;151.160;2023-04-25T11:07:12;18.60;99.90
44647;DHT22;56315;-33.902;151.160;2023-04-25T11:09:41;18.50;99.90
44647;DHT22;56315;-33.902;151.160;2023-04-25T11:12:09;18.40;99.90
44647;DHT22;56315;-33.902;151.160;2023-04-25T11:14:38;18.30;99.90
44647;DHT22;56315;-33.902;151.160;2023-04-25T11:17:05;18.30;99.90
44647;DHT22;56315;-33.902;151.160;2023-04-25T11:19:32;18.20;99.90
44647;DHT22;56315;-33.902;151.160;2023-04-25T11:22:01;18.10;99.90
44647;DHT22;56315;-33.902;151.160;2023-04-25T11:24:32;18.10;99.90
44647;DHT22;56315;-33.902;151.160;2023-04-25T11:27:04;18.00;99.90
44647;DHT22;56315;-33.902;151.160;2023-04-25T11:29:34;18.00;99.90
44647;DHT22;56315;-33.902;151.160;2023-04-25T11:32:02;18.10;99.90
44647;DHT22;56315;-33.902;151.160;2023-04-25T11:34:30;18.10;99.90
44647;DHT22;56315;-33.902;151.160;2023-04-25T11:36:58;18.10;99.90
44647;DHT22;56315;-33.902;151.160;2023-04-25T11:39:27;18.10;99.90
44647;DHT22;56315;-33.902;151.160;2023-04-25T11:41:55;18.10;99.90
44647;DHT22;56315;-33.902;151.160;2023-04-25T11:44:22;18.10;99.90
44647;DHT22;56315;-33.902;151.160;2023-04-25T11:46:50;18.00;99.90
44647;DHT22;56315;-33.902;151.160;2023-04-25T11:49:17;18.00;99.90
44647;DHT22;56315;-33.902;151.160;2023-04-25T11:51:46;18.00;99.90
44647;DHT22;56315;-33.902;151.160;2023-04-25T11:54:14;18.00;99.90
44647;DHT22;56315;-33.902;151.160;2023-04-25T11:56:45;17.90;99.90
44647;DHT22;56315;-33.902;151.160;2023-04-25T11:59:13;17.90;99.90
44647;DHT22;56315;-33.902;151.160;2023-04-25T12:01:49;17.90;99.90
44647;DHT22;56315;-33.902;151.160;2023-04-25T12:04:18;17.80;99.90
44647;DHT22;56315;-33.902;151.160;2023-04-25T12:06:48;17.70;99.90
44647;DHT22;56315;-33.902;151.160;2023-04-25T12:09:18;17.60;99.90
44647;DHT22;56315;-33.902;151.160;2023-04-25T12:11:47;17.60;99.90
44647;DHT22;56315;-33.902;151.160;2023-04-25T12:14:26;17.50;99.90
44647;DHT22;56315;-33.902;151.160;2023-04-25T12:16:56;17.40;99.90
44647;DHT22;56315;-33.902;151.160;2023-04-25T12:19:24;17.40;99.90
44647;DHT22;56315;-33.902;151.160;2023-04-25T12:21:52;17.40;99.90
44647;DHT22;56315;-33.902;151.160;2023-04-25T12:24:24;17.30;99.90
44647;DHT22;56315;-33.902;151.160;2023-04-25T12:29:25;17.20;99.90
44647;DHT22;56315;-33.902;151.160;2023-04-25T12:31:54;17.30;99.90
44647;DHT22;56315;-33.902;151.160;2023-04-25T12:34:23;17.20;99.90
44647;DHT22;56315;-33.902;151.160;2023-04-25T12:36:51;17.10;99.90
44647;DHT22;56315;-33.902;151.160;2023-04-25T12:39:24;17.10;99.90
44647;DHT22;56315;-33.902;151.160;2023-04-25T12:41:54;17.20;99.90
44647;DHT22;56315;-33.902;151.160;2023-04-25T12:44:22;17.20;99.90
44647;DHT22;56315;-33.902;151.160;2023-04-25T12:46:49;17.20;99.90
44647;DHT22;56315;-33.902;151.160;2023-04-25T12:49:19;17.20;99.90
44647;DHT22;56315;-33.902;151.160;2023-04-25T12:51:46;17.20;99.90
44647;DHT22;56315;-33.902;151.160;2023-04-25T12:54:14;17.30;99.90
44647;DHT22;56315;-33.902;151.160;2023-04-25T12:56:41;17.30;99.90
44647;DHT22;56315;-33.902;151.160;2023-04-25T12:59:09;17.20;99.90
44647;DHT22;56315;-33.902;151.160;2023-04-25T13:01:36;17.20;99.90
44647;DHT22;56315;-33.902;151.160;2023-04-25T13:04:03;17.20;99.90
44647;DHT22;56315;-33.902;151.160;2023-04-25T13:06:31;17.10;99.90
44647;DHT22;56315;-33.902;151.160;2023-04-25T13:08:58;17.10;99.90
44647;DHT22;56315;-33.902;151.160;2023-04-25T13:11:25;17.00;99.90
44647;DHT22;56315;-33.902;151.160;2023-04-25T13:13:52;17.00;99.90
44647;DHT22;56315;-33.902;151.160;2023-04-25T13:16:20;17.00;99.90
44647;DHT22;56315;-33.902;151.160;2023-04-25T13:18:48;16.90;99.90
44647;DHT22;56315;-33.902;151.160;2023-04-25T13:21:15;16.90;99.90
44647;DHT22;56315;-33.902;151.160;2023-04-25T13:23:42;16.80;99.90
44647;DHT22;56315;-33.902;151.160;2023-04-25T13:26:11;16.80;99.90
44647;DHT22;56315;-33.902;151.160;2023-04-25T13:28:38;16.70;99.90
44647;DHT22;56315;-33.902;151.160;2023-04-25T13:31:06;16.70;99.90
44647;DHT22;56315;-33.902;151.160;2023-04-25T13:33:34;16.60;99.90
44647;DHT22;56315;-33.902;151.160;2023-04-25T13:36:02;16.50;99.90
44647;DHT22;56315;-33.902;151.160;2023-04-25T13:38:29;16.50;99.90
44647;DHT22;56315;-33.902;151.160;2023-04-25T13:40:56;16.50;99.90
44647;DHT22;56315;-33.902;151.160;2023-04-25T13:43:24;16.40;99.90
44647;DHT22;56315;-33.902;151.160;2023-04-25T13:45:51;16.30;99.90
44647;DHT22;56315;-33.902;151.160;2023-04-25T13:48:19;16.30;99.90
44647;DHT22;56315;-33.902;151.160;2023-04-25T13:50:47;16.20;99.90
44647;DHT22;56315;-33.902;151.160;2023-04-25T13:53:14;16.20;99.90
44647;DHT22;56315;-33.902;151.160;2023-04-25T13:55:41;16.10;99.90
44647;DHT22;56315;-33.902;151.160;2023-04-25T13:58:08;16.10;99.90
44647;DHT22;56315;-33.902;151.160;2023-04-25T14:00:37;16.00;99.90
44647;DHT22;56315;-33.902;151.160;2023-04-25T14:03:09;16.00;99.90
44647;DHT22;56315;-33.902;151.160;2023-04-25T14:05:37;16.00;99.90
44647;DHT22;56315;-33.902;151.160;2023-04-25T14:08:09;15.90;99.90
44647;DHT22;56315;-33.902;151.160;2023-04-25T14:10:37;15.90;99.90
44647;DHT22;56315;-33.902;151.160;2023-04-25T14:13:05;15.80;99.90
44647;DHT22;56315;-33.902;151.160;2023-04-25T14:15:33;15.80;99.90
44647;DHT22;56315;-33.902;151.160;2023-04-25T14:18:01;15.80;99.90
44647;DHT22;56315;-33.902;151.160;2023-04-25T14:20:29;15.70;99.90
44647;DHT22;56315;-33.902;151.160;2023-04-25T14:22:57;15.60;99.90
44647;DHT22;56315;-33.902;151.160;2023-04-25T14:25:25;15.60;99.90
44647;DHT22;56315;-33.902;151.160;2023-04-25T14:27:52;15.60;99.90
44647;DHT22;56315;-33.902;151.160;2023-04-25T14:30:21;15.60;99.90
44647;DHT22;56315;-33.902;151.160;2023-04-25T14:32:49;15.50;99.90
44647;DHT22;56315;-33.902;151.160;2023-04-25T14:35:17;15.50;99.90
44647;DHT22;56315;-33.902;151.160;2023-04-25T14:37:44;15.50;99.90
44647;DHT22;56315;-33.902;151.160;2023-04-25T14:40:12;15.50;99.90
44647;DHT22;56315;-33.902;151.160;2023-04-25T14:42:42;15.50;99.90
44647;DHT22;56315;-33.902;151.160;2023-04-25T14:45:09;15.40;99.90
44647;DHT22;56315;-33.902;151.160;2023-04-25T14:47:37;15.40;99.90
44647;DHT22;56315;-33.902;151.160;2023-04-25T14:50:05;15.40;99.90
44647;DHT22;56315;-33.902;151.160;2023-04-25T14:52:32;15.40;99.90
44647;DHT22;56315;-33.902;151.160;2023-04-25T14:55:00;15.40;99.90
44647;DHT22;56315;-33.902;151.160;2023-04-25T14:57:32;15.40;99.90
44647;DHT22;56315;-33.902;151.160;2023-04-25T14:59:59;15.30;99.90
44647;DHT22;56315;-33.902;151.160;2023-04-25T15:02:27;15.30;99.90
44647;DHT22;56315;-33.902;151.160;2023-04-25T15:04:54;15.40;99.90